Time;durP1;ratioP1;P1;durP2;ratioP2;P2;SDS_P1;SDS_P2;PMS_P1;PMS_P2;Temp;Humidity;BMP_temperature;BMP_pressure;BME280_temperature;BME280_humidity;BME280_pressure;Samples;Min_cycle;Max_cycle;Signal;HPM_P1;HPM_P2
2021/10/08 00:00:34;;;;;;;17.57;12.47;;;10.70;99.90;;;;;;5004530;28;20291;-49
2021/10/08 00:03:01;;;;;;;20.97;14.50;;;10.60;99.90;;;;;;5019005;28;20236;-49
2021/10/08 00:05:28;;;;;;;16.90;13.03;;;10.60;99.90;;;;;;5017409;28;20236;-48
2021/10/08 00:07:54;;;;;;;19.27;13.23;;;10.50;99.90;;;;;;5018830;28;20209;-48
2021/10/08 00:10:21;;;;;;;16.83;13.20;;;10.60;99.90;;;;;;5013328;28;20202;-49
2021/10/08 00:12:48;;;;;;;20.80;14.50;;;10.40;99.90;;;;;;5014650;28;20707;-49
2021/10/08 00:15:15;;;;;;;18.07;13.60;;;10.60;99.90;;;;;;5011427;28;20332;-49
2021/10/08 00:17:42;;;;;;;17.97;13.50;;;10.60;99.90;;;;;;5020002;28;20622;-48
2021/10/08 00:20:09;;;;;;;19.70;13.07;;;10.60;99.90;;;;;;5016222;28;20239;-49
2021/10/08 00:22:36;;;;;;;19.30;13.63;;;10.50;99.90;;;;;;5015744;28;20223;-49
2021/10/08 00:25:03;;;;;;;17.63;13.27;;;10.60;99.90;;;;;;5014267;28;21021;-49
2021/10/08 00:27:30;;;;;;;19.97;14.30;;;10.60;99.90;;;;;;5019949;28;20299;-49
2021/10/08 00:29:57;;;;;;;17.80;12.03;;;10.60;99.90;;;;;;5016491;28;20320;-48
2021/10/08 00:32:24;;;;;;;17.70;13.13;;;10.50;99.90;;;;;;5014838;28;20270;-49
2021/10/08 00:34:50;;;;;;;18.47;12.83;;;10.50;99.90;;;;;;5013241;28;20542;-49
2021/10/08 00:37:17;;;;;;;18.20;12.67;;;10.60;99.90;;;;;;5008674;28;20233;-50
2021/10/08 00:39:44;;;;;;;15.73;12.17;;;10.60;99.90;;;;;;5000531;28;20777;-49
2021/10/08 00:42:11;;;;;;;18.13;12.43;;;10.50;99.90;;;;;;5016354;28;20236;-49
2021/10/08 00:44:38;;;;;;;17.40;12.87;;;10.50;99.90;;;;;;5013074;28;20263;-49
2021/10/08 00:47:13;;;;;;;18.23;13.40;;;10.50;99.90;;;;;;5016476;28;20219;-49
2021/10/08 00:49:40;;;;;;;18.50;13.57;;;10.50;99.90;;;;;;5015681;28;20569;-49
2021/10/08 00:52:07;;;;;;;19.60;13.93;;;10.60;99.90;;;;;;5020183;28;20486;-49
2021/10/08 00:54:34;;;;;;;19.80;13.80;;;10.50;99.90;;;;;;5013575;28;20783;-49
2021/10/08 00:57:01;;;;;;;18.77;13.47;;;10.50;99.90;;;;;;5007896;28;20208;-49
2021/10/08 00:59:28;;;;;;;18.13;13.87;;;10.30;99.90;;;;;;5017185;28;20212;-49
2021/10/08 01:01:56;;;;;;;18.40;12.73;;;10.40;99.90;;;;;;5005576;28;20297;-49
2021/10/08 01:04:24;;;;;;;18.83;14.27;;;10.30;99.90;;;;;;5014163;28;20300;-49
2021/10/08 01:06:51;;;;;;;17.13;12.57;;;10.40;99.90;;;;;;5005860;28;20296;-49
2021/10/08 01:09:18;;;;;;;19.60;14.03;;;10.40;99.90;;;;;;5007865;28;20288;-49
2021/10/08 01:11:45;;;;;;;21.00;13.30;;;10.50;99.90;;;;;;5009054;28;20842;-49
2021/10/08 01:14:12;;;;;;;22.17;13.63;;;10.50;99.90;;;;;;5008903;28;20217;-49
2021/10/08 01:16:40;;;;;;;18.77;13.60;;;10.30;99.90;;;;;;5009702;28;20316;-49
2021/10/08 01:19:07;;;;;;;19.77;13.83;;;10.10;99.90;;;;;;5008915;28;20193;-52
2021/10/08 01:21:34;;;;;;;22.13;15.00;;;10.00;99.90;;;;;;5008819;28;21016;-49
2021/10/08 01:24:01;;;;;;;19.73;13.60;;;10.10;99.90;;;;;;5013138;28;20351;-49
2021/10/08 01:26:28;;;;;;;17.93;13.20;;;10.10;99.90;;;;;;5007889;28;20648;-49
2021/10/08 01:28:55;;;;;;;21.70;14.00;;;10.30;99.90;;;;;;5011003;28;20252;-48
2021/10/08 01:31:22;;;;;;;18.13;13.70;;;10.20;99.90;;;;;;5013604;28;20238;-50
2021/10/08 01:33:48;;;;;;;18.60;13.87;;;10.20;99.90;;;;;;5011535;28;20197;-49
2021/10/08 01:36:15;;;;;;;24.00;14.13;;;10.20;99.90;;;;;;5009916;28;20301;-49
2021/10/08 01:38:42;;;;;;;18.13;13.40;;;10.20;99.90;;;;;;5013159;28;20307;-49
2021/10/08 01:41:09;;;;;;;20.30;13.27;;;10.30;99.90;;;;;;5007303;28;20674;-49
2021/10/08 01:43:36;;;;;;;21.90;13.30;;;10.30;99.90;;;;;;5003640;28;20320;-49
2021/10/08 01:46:03;;;;;;;20.27;14.40;;;10.30;99.90;;;;;;5015082;28;20233;-49
2021/10/08 01:48:29;;;;;;;20.10;12.87;;;10.30;99.90;;;;;;5007380;28;20234;-49
2021/10/08 01:50:56;;;;;;;18.43;13.17;;;10.20;99.90;;;;;;5006949;28;20237;-49
2021/10/08 01:53:23;;;;;;;18.27;13.47;;;10.30;99.90;;;;;;5012303;28;20339;-48
2021/10/08 01:55:50;;;;;;;16.93;12.17;;;10.30;99.90;;;;;;5009682;28;20227;-49
2021/10/08 01:58:17;;;;;;;20.17;12.23;;;10.30;99.90;;;;;;5007123;28;20666;-48
2021/10/08 02:00:44;;;;;;;17.70;12.93;;;10.20;99.90;;;;;;5013296;28;20304;-48
2021/10/08 02:03:11;;;;;;;17.60;13.17;;;10.30;99.90;;;;;;5005444;28;20208;-49
2021/10/08 02:05:38;;;;;;;18.57;13.27;;;10.20;99.90;;;;;;5005756;28;20703;-49
2021/10/08 02:08:05;;;;;;;18.73;12.60;;;10.20;99.90;;;;;;5010951;28;20274;-49
2021/10/08 02:10:31;;;;;;;21.07;13.60;;;10.20;99.90;;;;;;5004109;28;20419;-49
2021/10/08 02:12:58;;;;;;;18.30;13.17;;;10.10;99.90;;;;;;5005756;28;20665;-49
2021/10/08 02:15:25;;;;;;;20.17;13.47;;;10.00;99.90;;;;;;5013530;28;20489;-48
2021/10/08 02:17:52;;;;;;;17.80;12.63;;;10.10;99.90;;;;;;5013314;28;20229;-50
2021/10/08 02:20:18;;;;;;;16.17;11.47;;;10.20;99.90;;;;;;5012277;28;20285;-49
2021/10/08 02:22:47;;;;;;;17.40;12.23;;;10.00;99.90;;;;;;5007708;28;20665;-49
2021/10/08 02:25:14;;;;;;;17.10;11.97;;;9.80;99.90;;;;;;5003617;28;20309;-49
2021/10/08 02:27:41;;;;;;;18.03;12.57;;;9.90;99.90;;;;;;5005012;28;20295;-49
2021/10/08 02:30:08;;;;;;;15.93;12.10;;;9.90;99.90;;;;;;5005910;28;21087;-49
2021/10/08 02:32:35;;;;;;;16.53;12.50;;;9.90;99.90;;;;;;5011276;28;20241;-49
2021/10/08 02:35:03;;;;;;;14.73;10.70;;;9.80;99.90;;;;;;5011745;28;20211;-48
2021/10/08 02:37:30;;;;;;;17.40;11.37;;;9.70;99.90;;;;;;5009071;28;20274;-49
2021/10/08 02:39:57;;;;;;;16.23;11.30;;;9.60;99.90;;;;;;5006185;28;20676;-49
2021/10/08 02:42:24;;;;;;;14.97;10.80;;;9.50;99.90;;;;;;5008002;28;20635;-49
2021/10/08 02:44:51;;;;;;;16.37;11.63;;;9.60;99.90;;;;;;5012882;28;20236;-49
2021/10/08 02:47:18;;;;;;;17.03;11.57;;;9.80;99.90;;;;;;5009414;28;20211;-49
2021/10/08 02:49:45;;;;;;;17.17;10.87;;;9.70;99.90;;;;;;5008768;28;20205;-49
2021/10/08 02:52:12;;;;;;;12.93;10.07;;;9.60;99.90;;;;;;5005274;28;20642;-49
2021/10/08 02:54:59;;;;;;;16.27;10.83;;;9.50;99.90;;;;;;5009836;28;20229;-49
2021/10/08 02:57:26;;;;;;;18.53;10.70;;;9.60;99.90;;;;;;5009021;28;20210;-49
2021/10/08 02:59:53;;;;;;;15.53;9.90;;;9.50;99.90;;;;;;5007122;28;20203;-49
2021/10/08 03:02:20;;;;;;;18.37;10.60;;;9.50;99.90;;;;;;5009755;28;20221;-48
2021/10/08 03:04:47;;;;;;;15.60;10.47;;;9.50;99.90;;;;;;5015138;28;20239;-48
2021/10/08 03:07:14;;;;;;;14.77;10.20;;;9.60;99.90;;;;;;5008533;28;20261;-48
2021/10/08 03:09:41;;;;;;;14.43;10.73;;;9.70;99.90;;;;;;5010343;28;20267;-48
2021/10/08 03:12:08;;;;;;;14.73;10.57;;;9.80;99.90;;;;;;5007208;28;20559;-48
2021/10/08 03:14:35;;;;;;;15.47;10.73;;;9.80;99.90;;;;;;5013821;28;20314;-49
2021/10/08 03:17:02;;;;;;;14.33;10.47;;;9.80;99.90;;;;;;5005715;28;20227;-49
2021/10/08 03:19:29;;;;;;;13.77;11.00;;;9.80;99.90;;;;;;5011612;28;20199;-49
2021/10/08 03:21:56;;;;;;;14.27;10.23;;;9.80;99.90;;;;;;5007843;28;20226;-49
2021/10/08 03:24:23;;;;;;;13.47;9.47;;;9.70;99.90;;;;;;5011912;28;20204;-49
2021/10/08 03:26:50;;;;;;;14.23;10.00;;;9.70;99.90;;;;;;5011430;28;20246;-50
2021/10/08 03:29:17;;;;;;;12.60;9.83;;;9.80;99.90;;;;;;5016939;28;20691;-49
2021/10/08 03:31:44;;;;;;;12.00;9.57;;;9.80;99.90;;;;;;5008377;28;20368;-49
2021/10/08 03:34:11;;;;;;;12.87;9.67;;;9.70;99.90;;;;;;5012010;28;20223;-49
2021/10/08 03:39:13;;;;;;;12.10;9.67;;;9.80;99.90;;;;;;5013905;28;20266;-49
2021/10/08 03:41:42;;;;;;;12.90;10.10;;;9.70;99.90;;;;;;5009702;28;20291;-49
2021/10/08 03:44:10;;;;;;;12.80;9.97;;;9.60;99.90;;;;;;5016103;28;20729;-49
2021/10/08 03:46:47;;;;;;;14.63;9.40;;;9.70;99.90;;;;;;5011981;28;20263;-49
2021/10/08 03:49:15;;;;;;;15.10;9.80;;;9.80;99.90;;;;;;5009979;28;20293;-48
2021/10/08 03:51:44;;;;;;;14.80;9.80;;;9.70;99.90;;;;;;5016512;28;20337;-49
2021/10/08 03:54:12;;;;;;;13.37;10.10;;;9.70;99.90;;;;;;5009781;28;20336;-49
2021/10/08 03:56:39;;;;;;;13.03;9.60;;;9.60;99.90;;;;;;5015301;28;20301;-49
2021/10/08 03:59:06;;;;;;;15.23;10.23;;;9.70;99.90;;;;;;5014867;28;20611;-49
2021/10/08 04:01:33;;;;;;;13.03;9.43;;;9.60;99.90;;;;;;5008947;28;20310;-49
2021/10/08 04:04:05;;;;;;;15.03;9.77;;;9.50;99.90;;;;;;5014096;28;20193;-49
2021/10/08 04:06:33;;;;;;;16.40;9.43;;;9.50;99.90;;;;;;5014364;28;20246;-49
2021/10/08 04:09:02;;;;;;;15.67;9.53;;;9.40;99.90;;;;;;5011572;28;20612;-49
2021/10/08 04:11:30;;;;;;;12.93;9.50;;;9.50;99.90;;;;;;5013847;28;20692;-49
2021/10/08 04:13:56;;;;;;;12.97;8.53;;;9.40;99.90;;;;;;5013952;28;20225;-49
2021/10/08 04:16:23;;;;;;;12.90;9.13;;;9.40;99.90;;;;;;5014402;28;20291;-48
2021/10/08 04:18:50;;;;;;;14.70;8.70;;;9.30;99.90;;;;;;5009513;28;20301;-49
2021/10/08 04:21:18;;;;;;;14.97;9.10;;;9.20;99.90;;;;;;5010200;28;20308;-49
2021/10/08 04:23:45;;;;;;;12.00;8.77;;;9.10;99.90;;;;;;5010473;28;20237;-49
2021/10/08 04:26:12;;;;;;;14.33;9.13;;;9.20;99.90;;;;;;5009468;28;20218;-49
2021/10/08 04:28:38;;;;;;;13.77;9.30;;;9.30;99.90;;;;;;5008729;28;20229;-50
2021/10/08 04:31:05;;;;;;;13.67;8.80;;;9.40;99.90;;;;;;5016027;28;20239;-48
2021/10/08 04:33:34;;;;;;;14.70;9.70;;;9.50;99.90;;;;;;5013785;28;20292;-48
2021/10/08 04:36:01;;;;;;;11.87;8.20;;;9.50;99.90;;;;;;5011145;28;20234;-49
2021/10/08 04:38:29;;;;;;;11.27;8.67;;;9.40;99.90;;;;;;5014959;28;20643;-48
2021/10/08 04:40:56;;;;;;;12.53;9.17;;;9.50;99.90;;;;;;5009440;28;20203;-48
2021/10/08 04:43:23;;;;;;;14.10;8.73;;;9.50;99.90;;;;;;4997546;28;20745;-48
2021/10/08 04:45:50;;;;;;;14.50;8.50;;;9.50;99.90;;;;;;5012164;28;20677;-49
2021/10/08 04:48:17;;;;;;;14.47;9.93;;;9.40;99.90;;;;;;5009614;28;20236;-47
2021/10/08 04:50:44;;;;;;;12.60;9.17;;;9.40;99.90;;;;;;5005141;28;20229;-48
2021/10/08 04:53:17;;;;;;;15.83;8.57;;;9.50;99.90;;;;;;5009677;28;20271;-49
2021/10/08 04:55:45;;;;;;;11.03;8.53;;;9.50;99.90;;;;;;5008349;28;20318;-51
2021/10/08 04:58:12;;;;;;;11.73;8.03;;;9.50;99.90;;;;;;5007886;28;20301;-48
2021/10/08 05:00:39;;;;;;;19.73;8.00;;;9.30;99.90;;;;;;5008493;28;20233;-48
2021/10/08 05:03:10;;;;;;;11.80;8.47;;;9.20;99.90;;;;;;5005058;28;20210;-51
2021/10/08 05:05:38;;;;;;;14.57;10.03;;;9.00;99.90;;;;;;5006968;28;20533;-48
2021/10/08 05:08:05;;;;;;;16.53;9.50;;;9.20;99.90;;;;;;5007185;28;20328;-49
2021/10/08 05:10:32;;;;;;;12.37;8.10;;;9.20;99.90;;;;;;5001536;28;20693;-49
2021/10/08 05:12:59;;;;;;;13.33;8.90;;;9.30;99.90;;;;;;5009199;28;20201;-49
2021/10/08 05:15:26;;;;;;;13.07;9.53;;;9.30;99.90;;;;;;5008967;28;20224;-51
2021/10/08 05:17:53;;;;;;;13.93;9.10;;;9.40;99.90;;;;;;5008391;28;20296;-50
2021/10/08 05:20:20;;;;;;;13.30;9.83;;;9.20;99.90;;;;;;5014791;28;20660;-49
2021/10/08 05:22:47;;;;;;;16.77;10.00;;;9.30;99.90;;;;;;5013289;28;20309;-49
2021/10/08 05:25:14;;;;;;;14.70;9.53;;;9.20;99.90;;;;;;5005110;28;20261;-50
2021/10/08 05:27:41;;;;;;;11.97;8.80;;;9.30;99.90;;;;;;5005413;28;20234;-49
2021/10/08 05:30:08;;;;;;;14.47;8.90;;;9.40;99.90;;;;;;5011433;28;20344;-49
2021/10/08 05:32:35;;;;;;;15.90;9.70;;;9.40;99.90;;;;;;5010224;28;20388;-49
2021/10/08 05:35:03;;;;;;;13.33;9.00;;;9.40;99.90;;;;;;5012074;28;20281;-49
2021/10/08 05:37:30;;;;;;;14.73;9.40;;;9.40;99.90;;;;;;5011431;28;20222;-49
2021/10/08 05:39:57;;;;;;;12.53;8.90;;;9.40;99.90;;;;;;5011412;28;20651;-50
2021/10/08 05:42:24;;;;;;;13.13;9.73;;;9.50;99.90;;;;;;5012438;28;20301;-50
2021/10/08 05:44:51;;;;;;;16.60;8.60;;;9.40;99.90;;;;;;5013134;28;20226;-50
2021/10/08 05:47:18;;;;;;;12.50;9.50;;;9.40;99.90;;;;;;5012460;28;20257;-50
2021/10/08 05:49:44;;;;;;;14.80;9.60;;;9.30;99.90;;;;;;5014510;28;20308;-50
2021/10/08 05:52:11;;;;;;;12.97;8.80;;;9.20;99.90;;;;;;5010142;28;20294;-50
2021/10/08 05:54:38;;;;;;;13.73;9.70;;;9.30;99.90;;;;;;5010605;28;20598;-50
2021/10/08 05:57:07;;;;;;;13.73;8.50;;;9.20;99.90;;;;;;5013070;28;20208;-50
2021/10/08 05:59:34;;;;;;;14.33;9.97;;;9.30;99.90;;;;;;5012726;28;20554;-49
2021/10/08 06:02:01;;;;;;;13.60;9.10;;;9.20;99.90;;;;;;5008377;28;20297;-49
2021/10/08 06:04:28;;;;;;;15.47;9.27;;;9.20;99.90;;;;;;5010529;28;20225;-49
2021/10/08 06:06:55;;;;;;;12.73;9.13;;;9.20;99.90;;;;;;5006917;28;20324;-49
2021/10/08 06:09:25;;;;;;;15.03;8.97;;;9.30;99.90;;;;;;5008519;28;20205;-49
2021/10/08 06:11:52;;;;;;;13.87;9.60;;;9.30;99.90;;;;;;5010492;28;20269;-49
2021/10/08 06:14:19;;;;;;;21.50;10.30;;;9.30;99.90;;;;;;5009683;28;20295;-49
2021/10/08 06:16:45;;;;;;;15.40;9.80;;;9.40;99.90;;;;;;5014105;28;20201;-49
2021/10/08 06:19:12;;;;;;;15.27;10.33;;;9.50;99.90;;;;;;5014755;28;20297;-49
2021/10/08 06:21:39;;;;;;;14.17;10.30;;;9.40;99.90;;;;;;5008831;28;20585;-50
2021/10/08 06:24:06;;;;;;;17.53;10.53;;;9.40;99.90;;;;;;5009816;28;20309;-49
2021/10/08 06:26:33;;;;;;;16.97;10.57;;;9.30;99.90;;;;;;5006064;28;20309;-50
2021/10/08 06:28:59;;;;;;;14.70;10.57;;;9.30;99.90;;;;;;5009459;28;20271;-49
2021/10/08 06:31:26;;;;;;;16.33;11.10;;;9.20;99.90;;;;;;5013069;28;20727;-50
2021/10/08 06:33:53;;;;;;;16.13;10.40;;;9.20;99.90;;;;;;5010471;28;20562;-50
2021/10/08 06:36:20;;;;;;;18.13;11.10;;;9.20;99.90;;;;;;5012297;28;20576;-49
2021/10/08 06:38:46;;;;;;;17.10;10.73;;;9.30;99.90;;;;;;5011998;28;20238;-49
2021/10/08 06:41:13;;;;;;;21.60;11.63;;;9.30;99.90;;;;;;5004436;28;20240;-49
2021/10/08 06:43:41;;;;;;;18.27;10.97;;;9.20;99.90;;;;;;5008872;28;20332;-49
2021/10/08 06:46:08;;;;;;;19.70;11.53;;;9.40;99.90;;;;;;5012520;28;20234;-50
2021/10/08 06:48:34;;;;;;;18.17;11.33;;;9.40;99.90;;;;;;5015436;28;20251;-49
2021/10/08 06:51:01;;;;;;;26.73;11.37;;;9.50;99.90;;;;;;5010214;28;20224;-49
2021/10/08 06:53:28;;;;;;;17.80;11.87;;;9.40;99.90;;;;;;5011860;28;20288;-49
2021/10/08 06:55:55;;;;;;;20.43;11.30;;;9.40;99.90;;;;;;5016662;28;20294;-48
2021/10/08 06:58:22;;;;;;;18.37;11.00;;;9.50;99.90;;;;;;5013754;28;20308;-50
2021/10/08 07:00:52;;;;;;;20.77;11.57;;;9.50;99.90;;;;;;5015250;28;20233;-48
2021/10/08 07:03:20;;;;;;;21.33;11.53;;;9.50;99.90;;;;;;5008709;28;20222;-51
2021/10/08 07:05:47;;;;;;;18.10;11.97;;;9.50;99.90;;;;;;5016891;28;20257;-48
2021/10/08 07:08:14;;;;;;;21.77;11.90;;;9.60;99.90;;;;;;5020358;28;20236;-48
2021/10/08 07:10:42;;;;;;;16.33;11.53;;;9.60;99.90;;;;;;5009851;28;20226;-48
2021/10/08 07:13:10;;;;;;;28.43;12.40;;;9.60;99.90;;;;;;5012208;28;20199;-48
2021/10/08 07:15:37;;;;;;;19.80;12.37;;;9.60;99.90;;;;;;5009228;28;20225;-48
2021/10/08 07:18:06;;;;;;;19.57;11.93;;;9.60;99.90;;;;;;5015403;28;20290;-48
2021/10/08 07:20:33;;;;;;;21.10;11.90;;;9.80;99.90;;;;;;5014182;28;20307;-48
2021/10/08 07:23:02;;;;;;;18.87;11.83;;;9.80;99.90;;;;;;5018121;28;20290;-48
2021/10/08 07:25:30;;;;;;;17.93;11.80;;;9.80;99.90;;;;;;5015519;28;20197;-48
2021/10/08 07:27:57;;;;;;;21.03;11.70;;;9.90;99.90;;;;;;5013563;28;20217;-48
2021/10/08 07:30:25;;;;;;;20.17;12.67;;;9.80;99.90;;;;;;5014922;28;20303;-49
2021/10/08 07:32:52;;;;;;;22.60;11.67;;;9.90;99.90;;;;;;5014735;28;20309;-49
2021/10/08 07:35:19;;;;;;;22.13;13.23;;;10.00;99.90;;;;;;5017102;28;20272;-48
2021/10/08 07:37:45;;;;;;;24.37;11.63;;;10.00;99.90;;;;;;5013859;28;20267;-49
2021/10/08 07:40:13;;;;;;;23.67;13.10;;;10.00;99.90;;;;;;5013353;28;20201;-49
2021/10/08 07:42:41;;;;;;;22.10;11.60;;;9.80;99.90;;;;;;5013135;28;20208;-48
2021/10/08 07:45:10;;;;;;;23.10;13.17;;;9.90;99.90;;;;;;5018670;28;20301;-49
2021/10/08 07:47:37;;;;;;;19.83;12.53;;;9.90;99.90;;;;;;5013621;28;20245;-49
2021/10/08 07:50:05;;;;;;;19.80;11.70;;;10.00;99.90;;;;;;5018402;28;20621;-49
2021/10/08 07:52:32;;;;;;;20.30;11.60;;;10.10;99.90;;;;;;5007612;28;20331;-49
2021/10/08 07:54:59;;;;;;;22.07;13.03;;;10.20;99.90;;;;;;5010275;28;20557;-49
2021/10/08 07:57:26;;;;;;;38.63;14.93;;;10.10;99.90;;;;;;5010214;28;20277;-49
2021/10/08 07:59:53;;;;;;;22.00;11.63;;;10.20;99.90;;;;;;5005733;28;20233;-49
2021/10/08 08:02:21;;;;;;;18.03;12.10;;;10.30;99.90;;;;;;5008584;28;20299;-49
2021/10/08 08:04:49;;;;;;;18.33;11.47;;;10.30;99.90;;;;;;5011737;28;20207;-49
2021/10/08 08:07:16;;;;;;;14.33;10.47;;;10.30;99.90;;;;;;5012747;28;20210;-49
2021/10/08 08:09:42;;;;;;;17.23;11.73;;;10.20;99.90;;;;;;5011104;28;20221;-49
2021/10/08 08:12:09;;;;;;;19.80;12.03;;;10.30;99.90;;;;;;5008395;28;20336;-49
2021/10/08 08:14:36;;;;;;;19.10;11.87;;;10.10;99.90;;;;;;5008000;28;20205;-48
2021/10/08 08:17:03;;;;;;;19.13;11.77;;;10.20;99.90;;;;;;5006675;28;20251;-48
2021/10/08 08:19:30;;;;;;;17.17;11.50;;;10.30;99.90;;;;;;5007356;28;20325;-49
2021/10/08 08:21:57;;;;;;;18.23;12.03;;;10.30;99.90;;;;;;5009477;28;20237;-48
2021/10/08 08:27:09;;;;;;;18.07;12.10;;;10.50;99.90;;;;;;5006879;28;20599;-48
2021/10/08 08:29:36;;;;;;;20.73;12.47;;;10.60;99.90;;;;;;5011710;28;20229;-49
2021/10/08 08:32:03;;;;;;;19.97;11.27;;;10.70;99.90;;;;;;5009440;28;20569;-49
2021/10/08 08:34:30;;;;;;;17.10;11.13;;;10.60;99.90;;;;;;5012909;28;20296;-49
2021/10/08 08:36:57;;;;;;;16.70;10.63;;;10.60;99.90;;;;;;5008313;28;20292;-49
2021/10/08 08:39:24;;;;;;;18.73;10.77;;;10.50;99.90;;;;;;5006206;28;20323;-49
2021/10/08 08:41:51;;;;;;;15.27;10.93;;;10.70;99.90;;;;;;5010913;28;20645;-50
2021/10/08 08:44:18;;;;;;;19.60;11.80;;;10.80;99.90;;;;;;5010245;28;20329;-50
2021/10/08 08:46:45;;;;;;;16.83;10.77;;;10.90;99.90;;;;;;5009293;28;20721;-49
2021/10/08 08:49:12;;;;;;;17.33;11.17;;;10.90;99.90;;;;;;5013219;28;20300;-49
2021/10/08 08:51:39;;;;;;;18.47;11.80;;;10.90;99.90;;;;;;5009138;28;20656;-50
2021/10/08 08:54:10;;;;;;;14.83;11.23;;;11.00;99.90;;;;;;5018201;28;20216;-49
2021/10/08 08:56:37;;;;;;;15.53;10.33;;;11.10;99.90;;;;;;5016915;28;20290;-50
2021/10/08 08:59:07;;;;;;;18.67;12.47;;;10.90;99.90;;;;;;5024131;28;20254;-50
2021/10/08 09:01:34;;;;;;;26.57;16.27;;;11.20;99.90;;;;;;5017083;28;20729;-50
2021/10/08 09:04:07;;;;;;;18.73;12.97;;;11.30;99.90;;;;;;5012503;28;20216;-50
2021/10/08 09:06:37;;;;;;;20.67;12.50;;;11.40;99.90;;;;;;5011183;28;20311;-50
2021/10/08 09:09:33;;;;;;;20.20;13.40;;;11.50;99.90;;;;;;5007354;28;20201;-50
2021/10/08 09:12:00;;;;;;;21.10;13.40;;;11.40;99.90;;;;;;5010605;28;20237;-49
2021/10/08 09:14:31;;;;;;;21.03;13.20;;;11.40;99.90;;;;;;5007737;28;20245;-49
2021/10/08 09:17:17;;;;;;;21.83;15.10;;;11.50;99.90;;;;;;5016111;28;20642;-49
2021/10/08 09:19:51;;;;;;;24.57;14.63;;;11.30;99.90;;;;;;5006915;28;20256;-49
2021/10/08 09:22:28;;;;;;;22.47;14.37;;;11.50;99.90;;;;;;5006537;28;20240;-49
2021/10/08 09:25:19;;;;;;;21.50;13.77;;;11.60;99.90;;;;;;5007163;28;20624;-49
2021/10/08 09:28:08;;;;;;;24.77;15.20;;;11.90;99.90;;;;;;5007663;28;20690;-49
2021/10/08 09:30:45;;;;;;;23.80;15.07;;;12.10;99.90;;;;;;5011341;28;20212;-50
2021/10/08 09:33:14;;;;;;;27.30;16.10;;;12.10;99.90;;;;;;5019272;28;20668;-50
2021/10/08 09:35:42;;;;;;;25.47;14.20;;;12.20;99.90;;;;;;5024243;28;20307;-50
2021/10/08 09:38:12;;;;;;;24.97;15.50;;;12.10;99.90;;;;;;5012658;28;20225;-49
2021/10/08 09:40:50;;;;;;;25.97;15.07;;;12.20;99.90;;;;;;5014370;28;20206;-49
2021/10/08 09:43:22;;;;;;;24.27;15.93;;;12.20;99.90;;;;;;5015279;28;20330;-49
2021/10/08 09:45:52;;;;;;;27.00;16.30;;;12.40;99.90;;;;;;5008277;28;20800;-49
2021/10/08 09:48:25;;;;;;;25.47;16.60;;;12.40;99.90;;;;;;5003281;28;20300;-49
2021/10/08 09:50:58;;;;;;;29.67;17.97;;;12.00;99.90;;;;;;5008313;28;20591;-49
2021/10/08 09:53:25;;;;;;;27.63;17.57;;;12.20;99.90;;;;;;5010854;28;20275;-49
2021/10/08 09:55:55;;;;;;;29.03;17.97;;;12.40;99.90;;;;;;5006757;28;20198;-50
2021/10/08 09:58:22;;;;;;;28.40;16.97;;;12.50;99.90;;;;;;5014478;28;20286;-49
2021/10/08 10:01:06;;;;;;;28.33;18.17;;;12.50;99.90;;;;;;5013295;28;20240;-50
2021/10/08 10:03:33;;;;;;;32.10;18.10;;;12.60;99.90;;;;;;5009335;28;20206;-49
2021/10/08 10:06:01;;;;;;;29.60;18.27;;;12.50;99.90;;;;;;5009534;28;20248;-49
2021/10/08 10:08:28;;;;;;;30.90;18.53;;;12.50;99.90;;;;;;5013543;28;20665;-49
2021/10/08 10:10:56;;;;;;;29.73;18.97;;;12.60;99.90;;;;;;5007388;28;20210;-49
2021/10/08 10:13:23;;;;;;;33.03;19.80;;;12.60;99.90;;;;;;5002316;28;20313;-49
2021/10/08 10:15:51;;;;;;;32.10;19.53;;;12.80;99.90;;;;;;5013344;28;20213;-49
2021/10/08 10:18:20;;;;;;;32.30;20.27;;;13.10;99.90;;;;;;5016607;28;20248;-49
2021/10/08 10:20:52;;;;;;;33.10;20.37;;;13.20;99.90;;;;;;5007325;28;20457;-49
2021/10/08 10:23:21;;;;;;;31.40;20.00;;;13.20;99.90;;;;;;5007136;28;20233;-49
2021/10/08 10:25:50;;;;;;;37.07;21.73;;;13.20;99.90;;;;;;5011601;28;20289;-49
2021/10/08 10:28:17;;;;;;;30.83;19.67;;;13.20;99.90;;;;;;5006023;28;20322;-49
2021/10/08 10:30:46;;;;;;;33.07;21.23;;;13.40;99.90;;;;;;5015121;28;20205;-49
2021/10/08 10:33:14;;;;;;;34.87;22.13;;;13.50;99.90;;;;;;5007386;28;20269;-48
2021/10/08 10:35:53;;;;;;;33.70;20.97;;;13.40;99.90;;;;;;5009406;28;20230;-49
2021/10/08 10:38:39;;;;;;;36.33;21.97;;;13.60;99.90;;;;;;5009248;28;20249;-48
2021/10/08 10:41:08;;;;;;;31.57;20.43;;;13.70;99.90;;;;;;5008501;28;20212;-50
2021/10/08 10:43:45;;;;;;;37.77;22.10;;;13.70;99.90;;;;;;5013662;28;20236;-49
2021/10/08 10:51:58;;;;;;;33.63;20.97;;;14.00;99.90;;;;;;5014618;28;20256;-49
2021/10/08 10:54:34;;;;;;;33.23;20.00;;;14.30;99.90;;;;;;5007519;28;20287;-49
2021/10/08 10:57:05;;;;;;;31.80;21.43;;;14.50;99.90;;;;;;5018041;28;20311;-49
2021/10/08 10:59:34;;;;;;;27.30;19.60;;;14.50;99.90;;;;;;5010670;28;21179;-49
2021/10/08 11:02:08;;;;;;;32.57;21.33;;;14.60;99.90;;;;;;5016338;28;20675;-49
2021/10/08 11:04:35;;;;;;;28.33;19.03;;;14.60;88.30;;;;;;5014827;28;20659;-49
2021/10/08 11:07:13;;;;;;;26.87;19.33;;;14.70;99.90;;;;;;5017436;28;20319;-49
2021/10/08 11:09:41;;;;;;;27.53;18.10;;;14.90;99.90;;;;;;5009829;28;20310;-50
2021/10/08 11:12:42;;;;;;;30.47;20.07;;;14.80;1.00;;;;;;5005032;28;20294;-50
2021/10/08 11:15:19;;;;;;;27.53;18.10;;;15.00;1.00;;;;;;5006237;28;20229;-49
2021/10/08 11:17:45;;;;;;;28.03;18.30;;;15.20;1.00;;;;;;5015995;28;20247;-49
2021/10/08 11:20:31;;;;;;;31.97;18.50;;;15.10;1.00;;;;;;5010441;28;20713;-49
2021/10/08 11:23:07;;;;;;;28.40;17.33;;;15.50;1.00;;;;;;5013914;28;20263;-52
2021/10/08 11:25:45;;;;;;;27.03;18.53;;;15.70;1.00;;;;;;5013990;28;20592;-49
2021/10/08 11:28:14;;;;;;;25.93;17.20;;;15.70;1.00;;;;;;5015872;28;20697;-49
2021/10/08 11:30:41;;;;;;;29.57;18.87;;;15.60;1.00;;;;;;5020999;28;20227;-49
2021/10/08 11:33:08;;;;;;;28.60;17.20;;;15.80;1.00;;;;;;5018014;28;20271;-49
2021/10/08 11:35:38;;;;;;;25.57;17.47;;;16.20;1.00;;;;;;5018334;28;20742;-49
2021/10/08 11:38:05;;;;;;;23.53;16.50;;;16.40;1.00;;;;;;5015326;28;20205;-50
2021/10/08 11:40:43;;;;;;;24.30;15.87;;;16.80;1.00;;;;;;5012453;28;20259;-49
2021/10/08 11:43:21;;;;;;;27.17;17.70;;;17.10;99.90;;;;;;5011765;28;20287;-49
2021/10/08 11:45:54;;;;;;;23.67;16.07;;;17.30;99.90;;;;;;5010541;28;20273;-49
2021/10/08 11:48:27;;;;;;;23.97;16.43;;;17.50;1.00;;;;;;5014838;28;20782;-49
2021/10/08 11:51:02;;;;;;;25.63;16.23;;;17.40;1.00;;;;;;5010296;28;20289;-50
2021/10/08 11:53:47;;;;;;;23.13;15.53;;;17.70;1.00;;;;;;5009144;28;20217;-49
2021/10/08 11:56:24;;;;;;;22.10;15.20;;;18.30;99.90;;;;;;5016985;28;20238;-50
2021/10/08 11:58:53;;;;;;;23.30;15.80;;;18.50;1.00;;;;;;5013422;28;20631;-49
2021/10/08 12:01:21;;;;;;;20.70;14.30;;;18.90;1.00;;;;;;5020047;28;20574;-50
2021/10/08 12:03:49;;;;;;;22.07;15.03;;;19.20;99.80;;;;;;5017315;28;22058;-50
2021/10/08 12:06:21;;;;;;;23.00;16.17;;;19.40;1.00;;;;;;5008340;28;20246;-49
2021/10/08 12:08:48;;;;;;;22.97;14.03;;;19.70;1.00;;;;;;5024511;28;20245;-50
2021/10/08 12:11:16;;;;;;;18.90;13.53;;;19.60;99.90;;;;;;5016542;28;20236;-50
2021/10/08 12:13:48;;;;;;;18.50;13.83;;;19.50;1.00;;;;;;5014360;28;20307;-50
2021/10/08 12:16:21;;;;;;;20.57;13.77;;;20.00;1.00;;;;;;5014666;28;20652;-49
2021/10/08 12:18:51;;;;;;;19.50;12.07;;;20.40;1.00;;;;;;5008987;28;20239;-50
2021/10/08 12:21:23;;;;;;;15.07;11.73;;;20.00;1.00;;;;;;5018283;28;20672;-50
2021/10/08 12:23:55;;;;;;;18.33;12.47;;;20.10;1.00;;;;;;5015115;28;20197;-50
2021/10/08 12:26:22;;;;;;;16.90;12.33;;;20.40;1.00;;;;;;5007407;28;20256;-50
2021/10/08 12:28:51;;;;;;;14.87;11.63;;;20.30;1.00;;;;;;5009831;28;20307;-50
2021/10/08 12:31:19;;;;;;;14.53;11.20;;;20.80;1.00;;;;;;5009102;28;20223;-50
2021/10/08 12:33:48;;;;;;;14.83;10.93;;;21.00;1.00;;;;;;5011791;28;20207;-50
2021/10/08 12:36:26;;;;;;;13.23;9.90;;;20.80;99.90;;;;;;5009167;28;20221;-50
2021/10/08 12:39:04;;;;;;;13.70;10.57;;;20.50;1.00;;;;;;5023283;28;20593;-49
2021/10/08 12:41:34;;;;;;;14.27;10.73;;;20.10;1.00;;;;;;5016843;28;20670;-50
2021/10/08 12:44:10;;;;;;;15.03;11.27;;;20.00;1.00;;;;;;5020122;28;20280;-50
2021/10/08 12:46:42;;;;;;;13.80;10.20;;;19.50;1.00;;;;;;5015650;28;20679;-50
2021/10/08 12:49:10;;;;;;;13.17;10.00;;;20.20;1.00;;;;;;5007685;28;20209;-50
2021/10/08 12:51:47;;;;;;;13.40;10.03;;;20.20;1.00;;;;;;5010615;28;20923;-50